sensor_id;sensor_type;location;lat;lon;timestamp;pressure;altitude;pressure_sealevel;temperature;humidity
8075;BME280;4080;42.676;23.372;2022-11-02T00:01:53;95766.41;;;11.20;100.00
8075;BME280;4080;42.676;23.372;2022-11-02T00:04:20;95765.63;;;11.20;100.00
8075;BME280;4080;42.676;23.372;2022-11-02T00:06:46;95770.94;;;11.25;100.00
8075;BME280;4080;42.676;23.372;2022-11-02T00:09:14;95769.91;;;11.31;100.00
8075;BME280;4080;42.676;23.372;2022-11-02T00:11:41;95762.59;;;11.38;100.00
8075;BME280;4080;42.676;23.372;2022-11-02T00:14:08;95759.19;;;11.43;100.00
8075;BME280;4080;42.676;23.372;2022-11-02T00:16:36;95771.66;;;11.52;100.00
8075;BME280;4080;42.676;23.372;2022-11-02T00:19:04;95762.16;;;11.57;100.00
8075;BME280;4080;42.676;23.372;2022-11-02T00:21:31;95767.19;;;11.58;100.00
8075;BME280;4080;42.676;23.372;2022-11-02T00:23:59;95766.41;;;11.58;100.00
8075;BME280;4080;42.676;23.372;2022-11-02T00:26:28;95770.03;;;11.46;100.00
8075;BME280;4080;42.676;23.372;2022-11-02T00:28:54;95768.88;;;11.32;100.00
8075;BME280;4080;42.676;23.372;2022-11-02T00:31:21;95750.00;;;11.13;100.00
8075;BME280;4080;42.676;23.372;2022-11-02T00:33:48;95736.41;;;11.00;100.00
8075;BME280;4080;42.676;23.372;2022-11-02T00:36:14;95759.97;;;11.06;100.00
8075;BME280;4080;42.676;23.372;2022-11-02T00:38:41;95755.38;;;10.97;100.00
8075;BME280;4080;42.676;23.372;2022-11-02T00:41:08;95754.81;;;10.89;100.00
8075;BME280;4080;42.676;23.372;2022-11-02T00:43:36;95757.94;;;10.86;100.00
8075;BME280;4080;42.676;23.372;2022-11-02T00:46:03;95753.63;;;10.75;100.00
8075;BME280;4080;42.676;23.372;2022-11-02T00:48:29;95761.72;;;10.69;100.00
8075;BME280;4080;42.676;23.372;2022-11-02T00:50:56;95750.38;;;10.68;100.00
8075;BME280;4080;42.676;23.372;2022-11-02T00:53:23;95754.63;;;10.69;100.00
8075;BME280;4080;42.676;23.372;2022-11-02T00:55:50;95753.38;;;10.77;100.00
8075;BME280;4080;42.676;23.372;2022-11-02T00:58:18;95747.84;;;10.78;100.00
8075;BME280;4080;42.676;23.372;2022-11-02T01:00:46;95757.88;;;10.76;100.00
8075;BME280;4080;42.676;23.372;2022-11-02T01:03:13;95743.00;;;10.70;100.00
8075;BME280;4080;42.676;23.372;2022-11-02T01:05:39;95739.66;;;10.75;100.00
8075;BME280;4080;42.676;23.372;2022-11-02T01:08:06;95746.59;;;10.86;100.00
8075;BME280;4080;42.676;23.372;2022-11-02T01:10:33;95750.56;;;10.88;100.00
8075;BME280;4080;42.676;23.372;2022-11-02T01:13:00;95746.63;;;10.91;100.00
8075;BME280;4080;42.676;23.372;2022-11-02T01:15:27;95718.19;;;10.66;100.00
8075;BME280;4080;42.676;23.372;2022-11-02T01:17:55;95748.97;;;10.87;100.00
8075;BME280;4080;42.676;23.372;2022-11-02T01:20:21;95754.81;;;10.89;100.00
8075;BME280;4080;42.676;23.372;2022-11-02T01:22:48;95762.19;;;10.87;100.00
8075;BME280;4080;42.676;23.372;2022-11-02T01:25:15;95756.34;;;10.85;100.00
8075;BME280;4080;42.676;23.372;2022-11-02T01:27:42;95752.59;;;10.76;100.00
8075;BME280;4080;42.676;23.372;2022-11-02T01:30:09;95746.44;;;10.71;100.00
8075;BME280;4080;42.676;23.372;2022-11-02T01:32:36;95752.13;;;10.57;100.00
8075;BME280;4080;42.676;23.372;2022-11-02T01:35:05;95739.59;;;10.43;100.00
8075;BME280;4080;42.676;23.372;2022-11-02T01:37:31;95753.75;;;10.37;100.00
8075;BME280;4080;42.676;23.372;2022-11-02T01:39:59;95744.41;;;10.24;100.00
8075;BME280;4080;42.676;23.372;2022-11-02T01:42:26;95741.34;;;10.10;100.00
8075;BME280;4080;42.676;23.372;2022-11-02T01:44:53;95747.00;;;10.02;100.00
8075;BME280;4080;42.676;23.372;2022-11-02T01:47:23;95736.13;;;9.93;100.00
8075;BME280;4080;42.676;23.372;2022-11-02T01:49:54;95712.63;;;9.70;100.00
8075;BME280;4080;42.676;23.372;2022-11-02T01:52:25;95731.38;;;9.74;100.00
8075;BME280;4080;42.676;23.372;2022-11-02T01:54:57;95733.94;;;9.69;100.00
8075;BME280;4080;42.676;23.372;2022-11-02T01:57:26;95729.47;;;9.69;100.00
8075;BME280;4080;42.676;23.372;2022-11-02T01:59:56;95728.50;;;9.75;100.00
8075;BME280;4080;42.676;23.372;2022-11-02T02:02:26;95737.59;;;9.84;100.00
8075;BME280;4080;42.676;23.372;2022-11-02T02:04:58;95732.13;;;9.91;100.00
8075;BME280;4080;42.676;23.372;2022-11-02T02:07:29;95727.16;;;9.94;100.00
8075;BME280;4080;42.676;23.372;2022-11-02T02:09:56;95733.84;;;10.02;100.00
8075;BME280;4080;42.676;23.372;2022-11-02T02:12:24;95733.78;;;9.97;100.00
8075;BME280;4080;42.676;23.372;2022-11-02T02:14:52;95735.56;;;9.91;100.00
8075;BME280;4080;42.676;23.372;2022-11-02T02:17:31;95717.38;;;9.90;100.00
8075;BME280;4080;42.676;23.372;2022-11-02T02:20:03;95733.22;;;9.95;100.00
8075;BME280;4080;42.676;23.372;2022-11-02T02:22:56;95729.00;;;9.94;100.00
8075;BME280;4080;42.676;23.372;2022-11-02T02:26:01;95724.72;;;9.88;100.00
8075;BME280;4080;42.676;23.372;2022-11-02T02:28:40;95724.66;;;9.83;100.00
8075;BME280;4080;42.676;23.372;2022-11-02T02:31:13;95725.50;;;9.88;100.00
8075;BME280;4080;42.676;23.372;2022-11-02T02:33:46;95722.69;;;9.95;100.00
8075;BME280;4080;42.676;23.372;2022-11-02T02:36:20;95724.88;;;10.03;100.00
8075;BME280;4080;42.676;23.372;2022-11-02T02:38:56;95728.38;;;10.09;100.00
8075;BME280;4080;42.676;23.372;2022-11-02T02:41:33;95722.13;;;10.15;100.00
8075;BME280;4080;42.676;23.372;2022-11-02T02:44:05;95730.91;;;10.20;100.00
8075;BME280;4080;42.676;23.372;2022-11-02T02:46:36;95728.34;;;10.25;100.00
8075;BME280;4080;42.676;23.372;2022-11-02T02:49:09;95727.84;;;10.29;100.00
8075;BME280;4080;42.676;23.372;2022-11-02T02:51:39;95726.53;;;10.31;100.00
8075;BME280;4080;42.676;23.372;2022-11-02T02:54:10;95718.88;;;10.30;100.00
8075;BME280;4080;42.676;23.372;2022-11-02T02:56:41;95725.75;;;10.31;100.00
8075;BME280;4080;42.676;23.372;2022-11-02T02:59:15;95720.72;;;10.29;100.00
8075;BME280;4080;42.676;23.372;2022-11-02T03:01:44;95726.00;;;10.29;100.00
8075;BME280;4080;42.676;23.372;2022-11-02T03:04:11;95727.03;;;10.28;100.00
8075;BME280;4080;42.676;23.372;2022-11-02T03:06:40;95719.38;;;10.26;100.00
8075;BME280;4080;42.676;23.372;2022-11-02T03:09:13;95724.41;;;10.28;100.00
8075;BME280;4080;42.676;23.372;2022-11-02T03:11:50;95732.56;;;10.26;100.00
8075;BME280;4080;42.676;23.372;2022-11-02T03:14:31;95729.38;;;10.24;100.00
8075;BME280;4080;42.676;23.372;2022-11-02T03:17:08;95733.47;;;10.15;100.00
8075;BME280;4080;42.676;23.372;2022-11-02T03:19:47;95732.06;;;10.08;100.00
8075;BME280;4080;42.676;23.372;2022-11-02T03:22:21;95726.63;;;9.92;100.00
8075;BME280;4080;42.676;23.372;2022-11-02T03:24:56;95728.16;;;9.88;100.00
8075;BME280;4080;42.676;23.372;2022-11-02T03:27:33;95728.81;;;9.79;100.00
8075;BME280;4080;42.676;23.372;2022-11-02T03:30:05;95721.38;;;9.54;100.00
8075;BME280;4080;42.676;23.372;2022-11-02T03:32:37;95728.25;;;9.38;100.00
8075;BME280;4080;42.676;23.372;2022-11-02T03:35:10;95726.22;;;9.23;100.00
8075;BME280;4080;42.676;23.372;2022-11-02T03:37:44;95721.59;;;9.14;100.00
8075;BME280;4080;42.676;23.372;2022-11-02T03:40:14;95695.47;;;8.90;100.00
8075;BME280;4080;42.676;23.372;2022-11-02T03:42:43;95730.94;;;9.21;100.00
8075;BME280;4080;42.676;23.372;2022-11-02T03:45:13;95724.94;;;9.26;100.00
8075;BME280;4080;42.676;23.372;2022-11-02T03:47:43;95724.06;;;9.20;100.00
8075;BME280;4080;42.676;23.372;2022-11-02T03:50:12;95696.16;;;9.02;100.00
8075;BME280;4080;42.676;23.372;2022-11-02T03:52:43;95722.78;;;9.23;100.00
8075;BME280;4080;42.676;23.372;2022-11-02T03:55:14;95726.06;;;9.30;100.00
8075;BME280;4080;42.676;23.372;2022-11-02T03:57:46;95721.91;;;9.34;100.00
8075;BME280;4080;42.676;23.372;2022-11-02T04:00:16;95718.53;;;9.39;100.00
8075;BME280;4080;42.676;23.372;2022-11-02T04:02:45;95679.78;;;9.17;100.00
8075;BME280;4080;42.676;23.372;2022-11-02T04:05:13;95717.25;;;9.41;100.00
8075;BME280;4080;42.676;23.372;2022-11-02T04:07:41;95721.47;;;9.42;100.00
8075;BME280;4080;42.676;23.372;2022-11-02T04:10:32;95716.06;;;9.32;100.00
8075;BME280;4080;42.676;23.372;2022-11-02T04:12:59;95715.59;;;9.35;100.00
8075;BME280;4080;42.676;23.372;2022-11-02T04:15:50;95714.31;;;9.38;100.00
8075;BME280;4080;42.676;23.372;2022-11-02T04:18:17;95706.59;;;9.31;100.00
8075;BME280;4080;42.676;23.372;2022-11-02T04:21:01;95716.44;;;9.41;100.00
8075;BME280;4080;42.676;23.372;2022-11-02T04:23:27;95713.75;;;9.36;100.00
8075;BME280;4080;42.676;23.372;2022-11-02T04:26:11;95725.50;;;9.28;100.00
8075;BME280;4080;42.676;23.372;2022-11-02T04:28:38;95708.53;;;9.19;100.00
8075;BME280;4080;42.676;23.372;2022-11-02T04:31:06;95720.00;;;9.13;100.00
8075;BME280;4080;42.676;23.372;2022-11-02T04:33:33;95726.13;;;9.18;100.00
8075;BME280;4080;42.676;23.372;2022-11-02T04:35:59;95720.72;;;9.25;100.00
8075;BME280;4080;42.676;23.372;2022-11-02T04:38:27;95724.47;;;9.29;100.00
8075;BME280;4080;42.676;23.372;2022-11-02T04:41:05;95720.06;;;9.34;100.00
8075;BME280;4080;42.676;23.372;2022-11-02T04:43:49;95726.59;;;9.32;100.00
8075;BME280;4080;42.676;23.372;2022-11-02T04:46:18;95718.81;;;9.20;100.00
8075;BME280;4080;42.676;23.372;2022-11-02T04:48:44;95719.50;;;9.16;100.00
8075;BME280;4080;42.676;23.372;2022-11-02T04:51:11;95729.72;;;9.12;100.00
8075;BME280;4080;42.676;23.372;2022-11-02T04:53:38;95723.53;;;9.01;100.00
8075;BME280;4080;42.676;23.372;2022-11-02T04:56:05;95687.72;;;8.67;100.00
8075;BME280;4080;42.676;23.372;2022-11-02T04:58:33;95725.59;;;8.83;100.00
8075;BME280;4080;42.676;23.372;2022-11-02T05:01:03;95730.03;;;8.82;100.00
8075;BME280;4080;42.676;23.372;2022-11-02T05:03:31;95725.44;;;8.89;100.00
8075;BME280;4080;42.676;23.372;2022-11-02T05:05:58;95728.31;;;8.88;100.00
8075;BME280;4080;42.676;23.372;2022-11-02T05:08:25;95729.44;;;8.92;100.00
8075;BME280;4080;42.676;23.372;2022-11-02T05:10:53;95733.56;;;9.05;100.00
8075;BME280;4080;42.676;23.372;2022-11-02T05:13:20;95703.38;;;8.90;100.00
8075;BME280;4080;42.676;23.372;2022-11-02T05:15:47;95735.00;;;9.29;100.00
8075;BME280;4080;42.676;23.372;2022-11-02T05:18:14;95736.28;;;9.48;100.00
8075;BME280;4080;42.676;23.372;2022-11-02T05:20:42;95740.38;;;9.56;
8075;BME280;4080;42.676;23.372;2022-11-02T05:23:15;95746.50;;;9.61;100.00
8075;BME280;4080;42.676;23.372;2022-11-02T05:25:42;95732.28;;;9.62;100.00
8075;BME280;4080;42.676;23.372;2022-11-02T05:28:08;95752.22;;;9.97;100.00
8075;BME280;4080;42.676;23.372;2022-11-02T05:30:35;95760.03;;;10.31;100.00
8075;BME280;4080;42.676;23.372;2022-11-02T05:33:02;95768.25;;;10.61;100.00
8075;BME280;4080;42.676;23.372;2022-11-02T05:35:28;95770.81;;;11.10;100.00
8075;BME280;4080;42.676;23.372;2022-11-02T05:37:57;95769.03;;;11.58;100.00
8075;BME280;4080;42.676;23.372;2022-11-02T05:40:23;95778.34;;;12.07;100.00
8075;BME280;4080;42.676;23.372;2022-11-02T05:42:50;95771.06;;;12.45;100.00
8075;BME280;4080;42.676;23.372;2022-11-02T05:45:17;95777.75;;;12.78;100.00
8075;BME280;4080;42.676;23.372;2022-11-02T05:47:43;95788.66;;;13.07;100.00
8075;BME280;4080;42.676;23.372;2022-11-02T05:50:10;95792.69;;;13.25;100.00
8075;BME280;4080;42.676;23.372;2022-11-02T05:52:37;95797.19;;;13.34;100.00
8075;BME280;4080;42.676;23.372;2022-11-02T05:55:06;95806.72;;;13.51;100.00
8075;BME280;4080;42.676;23.372;2022-11-02T05:57:32;95812.25;;;13.75;100.00
8075;BME280;4080;42.676;23.372;2022-11-02T05:59:59;95810.91;;;13.92;100.00
8075;BME280;4080;42.676;23.372;2022-11-02T06:02:26;95809.53;;;14.15;100.00
8075;BME280;4080;42.676;23.372;2022-11-02T06:04:52;95808.91;;;14.39;100.00
8075;BME280;4080;42.676;23.372;2022-11-02T06:07:19;95814.94;;;14.59;100.00
8075;BME280;4080;42.676;23.372;2022-11-02T06:09:46;95824.44;;;14.76;100.00
8075;BME280;4080;42.676;23.372;2022-11-02T06:12:14;95820.38;;;14.88;100.00
8075;BME280;4080;42.676;23.372;2022-11-02T06:14:41;95822.13;;;15.08;100.00
8075;BME280;4080;42.676;23.372;2022-11-02T06:17:07;95821.47;;;15.27;100.00
8075;BME280;4080;42.676;23.372;2022-11-02T06:19:34;95814.38;;;15.51;100.00
8075;BME280;4080;42.676;23.372;2022-11-02T06:22:01;95821.38;;;15.76;100.00
8075;BME280;4080;42.676;23.372;2022-11-02T06:24:27;95827.59;;;15.95;100.00
8075;BME280;4080;42.676;23.372;2022-11-02T06:26:54;95824.47;;;16.12;100.00
8075;BME280;4080;42.676;23.372;2022-11-02T06:29:22;95825.72;;;16.20;100.00
8075;BME280;4080;42.676;23.372;2022-11-02T06:31:49;95833.38;;;16.26;100.00
8075;BME280;4080;42.676;23.372;2022-11-02T06:34:15;95834.91;;;16.32;100.00
8075;BME280;4080;42.676;23.372;2022-11-02T06:36:42;95826.50;;;16.44;100.00
8075;BME280;4080;42.676;23.372;2022-11-02T06:39:09;95827.03;;;16.70;100.00
8075;BME280;4080;42.676;23.372;2022-11-02T06:41:35;95825.19;;;16.89;99.59
8075;BME280;4080;42.676;23.372;2022-11-02T06:44:02;95814.59;;;16.84;97.73
8075;BME280;4080;42.676;23.372;2022-11-02T06:46:30;95830.38;;;16.99;97.90
8075;BME280;4080;42.676;23.372;2022-11-02T06:48:57;95836.72;;;17.22;95.60
8075;BME280;4080;42.676;23.372;2022-11-02T06:51:24;95836.97;;;17.39;95.12
8075;BME280;4080;42.676;23.372;2022-11-02T06:53:51;95829.44;;;17.60;94.17
8075;BME280;4080;42.676;23.372;2022-11-02T06:56:17;95827.72;;;17.69;93.32
8075;BME280;4080;42.676;23.372;2022-11-02T06:58:44;95824.41;;;17.78;95.09
8075;BME280;4080;42.676;23.372;2022-11-02T07:01:11;95822.53;;;17.92;91.55
8075;BME280;4080;42.676;23.372;2022-11-02T07:03:39;95823.94;;;18.03;92.06
8075;BME280;4080;42.676;23.372;2022-11-02T07:06:06;95826.34;;;18.18;91.37
8075;BME280;4080;42.676;23.372;2022-11-02T07:08:32;95826.63;;;18.30;92.04
8075;BME280;4080;42.676;23.372;2022-11-02T07:10:59;95818.72;;;18.53;90.81
8075;BME280;4080;42.676;23.372;2022-11-02T07:13:26;95817.88;;;18.71;89.39
8075;BME280;4080;42.676;23.372;2022-11-02T07:15:53;95825.44;;;18.91;89.48
8075;BME280;4080;42.676;23.372;2022-11-02T07:18:20;95827.19;;;19.10;88.63
8075;BME280;4080;42.676;23.372;2022-11-02T07:20:49;95826.16;;;19.19;87.36
8075;BME280;4080;42.676;23.372;2022-11-02T07:23:16;95827.31;;;19.27;86.54
8075;BME280;4080;42.676;23.372;2022-11-02T07:25:42;95826.69;;;19.44;86.59
8075;BME280;4080;42.676;23.372;2022-11-02T07:28:09;95819.69;;;19.57;85.91
8075;BME280;4080;42.676;23.372;2022-11-02T07:30:36;95826.75;;;19.75;85.82
8075;BME280;4080;42.676;23.372;2022-11-02T07:33:02;95823.47;;;20.09;83.06
8075;BME280;4080;42.676;23.372;2022-11-02T07:35:29;95812.41;;;20.33;82.45
8075;BME280;4080;42.676;23.372;2022-11-02T07:37:59;95822.06;;;20.42;81.97
8075;BME280;4080;42.676;23.372;2022-11-02T07:40:26;95819.31;;;20.65;81.20
8075;BME280;4080;42.676;23.372;2022-11-02T07:42:53;95814.00;;;20.82;81.28
8075;BME280;4080;42.676;23.372;2022-11-02T07:45:19;95774.72;;;20.86;79.51
8075;BME280;4080;42.676;23.372;2022-11-02T07:47:47;95811.06;;;21.35;76.37
8075;BME280;4080;42.676;23.372;2022-11-02T07:50:16;95815.34;;;21.45;76.85
8075;BME280;4080;42.676;23.372;2022-11-02T07:52:45;95816.59;;;21.56;76.52
8075;BME280;4080;42.676;23.372;2022-11-02T07:55:14;95815.28;;;21.80;76.08
8075;BME280;4080;42.676;23.372;2022-11-02T07:57:41;95810.34;;;22.08;73.40
8075;BME280;4080;42.676;23.372;2022-11-02T08:00:09;95811.84;;;22.26;73.77
8075;BME280;4080;42.676;23.372;2022-11-02T08:02:36;95799.97;;;22.36;72.14
8075;BME280;4080;42.676;23.372;2022-11-02T08:05:03;95803.94;;;22.29;72.99
8075;BME280;4080;42.676;23.372;2022-11-02T08:07:30;95804.38;;;22.40;72.17
8075;BME280;4080;42.676;23.372;2022-11-02T08:09:57;95799.31;;;22.39;71.52
8075;BME280;4080;42.676;23.372;2022-11-02T08:12:25;95779.13;;;22.24;72.37
8075;BME280;4080;42.676;23.372;2022-11-02T08:14:52;95786.84;;;22.63;72.00
8075;BME280;4080;42.676;23.372;2022-11-02T08:17:18;95796.91;;;23.05;69.70
8075;BME280;4080;42.676;23.372;2022-11-02T08:19:46;95790.66;;;23.34;69.79
8075;BME280;4080;42.676;23.372;2022-11-02T08:22:12;95786.69;;;23.73;67.72
8075;BME280;4080;42.676;23.372;2022-11-02T08:24:39;95784.84;;;24.10;66.49
8075;BME280;4080;42.676;23.372;2022-11-02T08:27:06;95781.97;;;24.27;62.52
8075;BME280;4080;42.676;23.372;2022-11-02T08:29:34;95779.06;;;24.20;64.61
8075;BME280;4080;42.676;23.372;2022-11-02T08:32:01;95779.38;;;24.19;64.41
8075;BME280;4080;42.676;23.372;2022-11-02T08:34:28;95773.56;;;24.29;64.53
8075;BME280;4080;42.676;23.372;2022-11-02T08:36:54;95777.84;;;24.54;63.95
8075;BME280;4080;42.676;23.372;2022-11-02T08:39:21;95773.88;;;24.76;61.25
8075;BME280;4080;42.676;23.372;2022-11-02T08:41:47;95774.00;;;24.67;61.33
8075;BME280;4080;42.676;23.372;2022-11-02T08:44:14;95771.44;;;24.59;61.81
8075;BME280;4080;42.676;23.372;2022-11-02T08:46:42;95766.22;;;24.78;61.95
8075;BME280;4080;42.676;23.372;2022-11-02T08:49:09;95755.44;;;24.90;60.40
8075;BME280;4080;42.676;23.372;2022-11-02T08:51:36;95761.50;;;24.99;61.11
8075;BME280;4080;42.676;23.372;2022-11-02T08:54:02;95759.00;;;25.06;59.44
8075;BME280;4080;42.676;23.372;2022-11-02T08:56:29;95759.78;;;25.07;59.52
8075;BME280;4080;42.676;23.372;2022-11-02T08:58:56;95758.31;;;25.10;59.15
8075;BME280;4080;42.676;23.372;2022-11-02T09:01:22;95759.53;;;25.24;59.18
8075;BME280;4080;42.676;23.372;2022-11-02T09:03:50;95757.78;;;25.44;58.02
8075;BME280;4080;42.676;23.372;2022-11-02T09:06:17;95752.38;;;25.60;57.80
8075;BME280;4080;42.676;23.372;2022-11-02T09:08:44;95752.47;;;25.63;56.86
8075;BME280;4080;42.676;23.372;2022-11-02T09:11:11;95751.44;;;25.80;55.83
8075;BME280;4080;42.676;23.372;2022-11-02T09:13:38;95753.50;;;25.87;55.36
8075;BME280;4080;42.676;23.372;2022-11-02T09:16:05;95748.38;;;25.82;55.60
8075;BME280;4080;42.676;23.372;2022-11-02T09:18:32;95743.16;;;25.89;55.67
8075;BME280;4080;42.676;23.372;2022-11-02T09:21:02;95739.47;;;25.97;55.53
8075;BME280;4080;42.676;23.372;2022-11-02T09:23:29;95734.06;;;25.97;54.35
8075;BME280;4080;42.676;23.372;2022-11-02T09:25:57;95736.84;;;26.00;55.02
8075;BME280;4080;42.676;23.372;2022-11-02T09:28:24;95733.47;;;26.19;54.97
8075;BME280;4080;42.676;23.372;2022-11-02T09:30:51;95703.81;;;26.23;54.13
8075;BME280;4080;42.676;23.372;2022-11-02T09:33:17;95725.78;;;26.53;54.59
8075;BME280;4080;42.676;23.372;2022-11-02T09:35:46;95729.25;;;26.69;54.11
8075;BME280;4080;42.676;23.372;2022-11-02T09:38:15;95712.88;;;26.81;52.65
8075;BME280;4080;42.676;23.372;2022-11-02T09:40:45;95720.28;;;26.84;53.97
8075;BME280;4080;42.676;23.372;2022-11-02T09:43:19;95723.78;;;26.85;53.40
8075;BME280;4080;42.676;23.372;2022-11-02T09:45:57;95706.81;;;26.69;54.58
8075;BME280;4080;42.676;23.372;2022-11-02T09:48:27;95705.81;;;26.77;53.94
8075;BME280;4080;42.676;23.372;2022-11-02T09:51:00;95703.03;;;26.92;52.78
8075;BME280;4080;42.676;23.372;2022-11-02T09:53:39;95703.38;;;27.07;52.81
8075;BME280;4080;42.676;23.372;2022-11-02T09:56:08;95695.69;;;27.09;51.86
8075;BME280;4080;42.676;23.372;2022-11-02T09:58:37;95696.41;;;27.06;52.03
8075;BME280;4080;42.676;23.372;2022-11-02T10:01:14;95662.91;;;26.95;52.31
8075;BME280;4080;42.676;23.372;2022-11-02T10:03:56;95686.19;;;27.38;51.36
8075;BME280;4080;42.676;23.372;2022-11-02T10:06:26;95686.06;;;27.53;51.09
8075;BME280;4080;42.676;23.372;2022-11-02T10:09:01;95683.25;;;27.66;50.26
8075;BME280;4080;42.676;23.372;2022-11-02T10:11:40;95679.88;;;27.72;50.55
8075;BME280;4080;42.676;23.372;2022-11-02T10:14:13;95677.31;;;27.83;49.36
8075;BME280;4080;42.676;23.372;2022-11-02T10:16:46;95673.25;;;27.93;49.15
8075;BME280;4080;42.676;23.372;2022-11-02T10:19:18;95665.63;;;28.02;49.46
8075;BME280;4080;42.676;23.372;2022-11-02T10:21:46;95674.44;;;28.18;48.25
8075;BME280;4080;42.676;23.372;2022-11-02T10:24:22;95661.50;;;28.34;47.62
8075;BME280;4080;42.676;23.372;2022-11-02T10:26:49;95657.78;;;28.46;47.43
8075;BME280;4080;42.676;23.372;2022-11-02T10:29:25;95634.13;;;28.47;47.03
8075;BME280;4080;42.676;23.372;2022-11-02T10:31:55;95648.28;;;28.59;46.98
8075;BME280;4080;42.676;23.372;2022-11-02T10:34:23;95614.81;;;28.48;46.73
8075;BME280;4080;42.676;23.372;2022-11-02T10:37:00;95645.06;;;28.80;46.26
8075;BME280;4080;42.676;23.372;2022-11-02T10:39:41;95646.72;;;28.85;46.35
8075;BME280;4080;42.676;23.372;2022-11-02T10:42:23;95638.78;;;28.76;46.58
8075;BME280;4080;42.676;23.372;2022-11-02T10:45:07;95635.41;;;28.83;46.27
8075;BME280;4080;42.676;23.372;2022-11-02T10:47:42;95637.34;;;28.82;45.97
8075;BME280;4080;42.676;23.372;2022-11-02T10:50:33;95593.56;;;28.54;46.19
8075;BME280;4080;42.676;23.372;2022-11-02T10:53:02;95601.06;;;28.67;47.19
8075;BME280;4080;42.676;23.372;2022-11-02T10:55:35;95626.66;;;28.96;46.85
8075;BME280;4080;42.676;23.372;2022-11-02T10:58:08;95617.03;;;29.02;45.85
8075;BME280;4080;42.676;23.372;2022-11-02T11:00:38;95610.41;;;29.00;44.91
8075;BME280;4080;42.676;23.372;2022-11-02T11:03:08;95586.06;;;28.77;44.81
8075;BME280;4080;42.676;23.372;2022-11-02T11:05:37;95611.56;;;28.99;44.84
8075;BME280;4080;42.676;23.372;2022-11-02T11:08:25;95606.13;;;28.99;44.04
8075;BME280;4080;42.676;23.372;2022-11-02T11:11:09;95596.25;;;29.17;45.24
8075;BME280;4080;42.676;23.372;2022-11-02T11:13:36;95594.41;;;29.28;45.22
8075;BME280;4080;42.676;23.372;2022-11-02T11:16:03;95590.91;;;29.28;43.81
8075;BME280;4080;42.676;23.372;2022-11-02T11:18:31;95596.75;;;29.30;42.87
8075;BME280;4080;42.676;23.372;2022-11-02T11:20:58;95590.59;;;29.36;43.69
8075;BME280;4080;42.676;23.372;2022-11-02T11:23:25;95579.59;;;29.22;42.05
8075;BME280;4080;42.676;23.372;2022-11-02T11:25:55;95580.00;;;29.24;42.45
8075;BME280;4080;42.676;23.372;2022-11-02T11:28:25;95580.06;;;29.31;41.41
8075;BME280;4080;42.676;23.372;2022-11-02T11:31:03;95574.56;;;29.24;40.60
8075;BME280;4080;42.676;23.372;2022-11-02T11:33:31;95570.22;;;29.16;41.43
8075;BME280;4080;42.676;23.372;2022-11-02T11:35:59;95559.72;;;29.11;40.96
8075;BME280;4080;42.676;23.372;2022-11-02T11:38:26;95546.31;;;28.92;39.98
8075;BME280;4080;42.676;23.372;2022-11-02T11:40:56;95565.94;;;28.78;40.67
8075;BME280;4080;42.676;23.372;2022-11-02T11:43:26;95550.97;;;28.61;40.02
8075;BME280;4080;42.676;23.372;2022-11-02T11:45:55;95554.25;;;28.44;40.45
8075;BME280;4080;42.676;23.372;2022-11-02T11:48:32;95544.03;;;28.30;40.79
8075;BME280;4080;42.676;23.372;2022-11-02T11:51:00;95546.63;;;28.23;40.25
8075;BME280;4080;42.676;23.372;2022-11-02T11:53:28;95539.88;;;28.13;40.39
8075;BME280;4080;42.676;23.372;2022-11-02T11:55:57;95538.63;;;28.07;39.92
8075;BME280;4080;42.676;23.372;2022-11-02T11:58:26;95535.00;;;27.96;38.80
8075;BME280;4080;42.676;23.372;2022-11-02T12:01:05;95525.03;;;27.77;36.67
8075;BME280;4080;42.676;23.372;2022-11-02T12:03:48;95525.63;;;27.64;36.07
8075;BME280;4080;42.676;23.372;2022-11-02T12:06:21;95526.94;;;27.50;36.22
8075;BME280;4080;42.676;23.372;2022-11-02T12:08:59;95521.72;;;27.38;35.80
8075;BME280;4080;42.676;23.372;2022-11-02T12:11:38;95519.47;;;27.21;34.70
8075;BME280;4080;42.676;23.372;2022-11-02T12:14:17;95514.97;;;27.06;34.78
8075;BME280;4080;42.676;23.372;2022-11-02T12:17:00;95515.19;;;26.97;34.91
8075;BME280;4080;42.676;23.372;2022-11-02T12:19:44;95503.81;;;26.88;35.30
8075;BME280;4080;42.676;23.372;2022-11-02T12:22:20;95503.19;;;26.75;35.03
8075;BME280;4080;42.676;23.372;2022-11-02T12:25:08;95504.47;;;26.62;35.58
8075;BME280;4080;42.676;23.372;2022-11-02T12:27:46;95469.88;;;26.33;36.18
8075;BME280;4080;42.676;23.372;2022-11-02T12:30:19;95502.66;;;26.47;36.18
8075;BME280;4080;42.676;23.372;2022-11-02T12:33:05;95492.13;;;26.42;36.74
8075;BME280;4080;42.676;23.372;2022-11-02T12:38:59;95491.22;;;26.34;38.16
8075;BME280;4080;42.676;23.372;2022-11-02T12:41:36;95489.63;;;26.33;37.84
8075;BME280;4080;42.676;23.372;2022-11-02T12:44:18;95488.38;;;26.30;38.37
8075;BME280;4080;42.676;23.372;2022-11-02T12:46:55;95487.19;;;26.28;38.64
8075;BME280;4080;42.676;23.372;2022-11-02T12:49:33;95482.13;;;26.26;39.09
8075;BME280;4080;42.676;23.372;2022-11-02T12:52:10;95452.41;;;26.07;39.23
8075;BME280;4080;42.676;23.372;2022-11-02T12:54:43;95478.22;;;26.24;39.14
8075;BME280;4080;42.676;23.372;2022-11-02T12:57:14;95473.59;;;26.24;39.67
8075;BME280;4080;42.676;23.372;2022-11-02T12:59:43;95468.41;;;26.16;39.23
8075;BME280;4080;42.676;23.372;2022-11-02T13:02:14;95471.81;;;26.13;39.25
8075;BME280;4080;42.676;23.372;2022-11-02T13:04:46;95474.03;;;26.07;39.13
8075;BME280;4080;42.676;23.372;2022-11-02T13:07:19;95468.47;;;26.00;39.42
8075;BME280;4080;42.676;23.372;2022-11-02T13:09:52;95473.72;;;25.93;39.45
8075;BME280;4080;42.676;23.372;2022-11-02T13:12:22;95470.22;;;25.92;39.59
8075;BME280;4080;42.676;23.372;2022-11-02T13:14:54;95465.97;;;25.91;39.83
8075;BME280;4080;42.676;23.372;2022-11-02T13:17:24;95475.22;;;25.90;39.61
8075;BME280;4080;42.676;23.372;2022-11-02T13:19:54;95420.31;;;25.51;39.39
8075;BME280;4080;42.676;23.372;2022-11-02T13:22:25;95465.59;;;25.74;39.54
8075;BME280;4080;42.676;23.372;2022-11-02T13:24:56;95424.00;;;25.43;40.02
8075;BME280;4080;42.676;23.372;2022-11-02T13:27:30;95459.69;;;25.52;39.92